createdAt,value
2023-01-19T00:01:32.662Z,8.05
2023-01-19T00:04:00.122Z,8.23
2023-01-19T00:06:27.961Z,8.80
2023-01-19T00:08:55.490Z,8.73
2023-01-19T00:11:23.055Z,8.98
2023-01-19T00:13:51.114Z,9.68
2023-01-19T00:16:22.804Z,9.23
2023-01-19T00:18:51.962Z,8.55
2023-01-19T00:21:21.434Z,9.18
2023-01-19T00:23:51.119Z,8.55
2023-01-19T00:26:19.142Z,8.95
2023-01-19T00:28:47.134Z,8.43
2023-01-19T00:31:14.686Z,8.25
2023-01-19T00:33:43.592Z,8.63
2023-01-19T00:36:11.462Z,9.15
2023-01-19T00:38:39.633Z,8.65
2023-01-19T00:41:07.345Z,8.50
2023-01-19T00:43:34.051Z,9.25
2023-01-19T00:46:01.751Z,9.27
2023-01-19T00:48:29.450Z,8.48
2023-01-19T00:50:59.908Z,9.15
2023-01-19T00:53:29.097Z,8.85
2023-01-19T00:55:56.581Z,8.95
2023-01-19T00:58:24.080Z,8.88
2023-01-19T01:00:54.711Z,9.10
2023-01-19T01:03:28.080Z,9.65
2023-01-19T01:05:55.764Z,9.20
2023-01-19T01:08:24.775Z,9.05
2023-01-19T01:10:52.495Z,8.60
2023-01-19T01:13:22.332Z,8.68
2023-01-19T01:15:50.761Z,8.68
2023-01-19T01:18:18.310Z,9.52
2023-01-19T01:20:45.823Z,8.80
2023-01-19T01:23:14.057Z,9.15
2023-01-19T01:25:43.410Z,7.95
2023-01-19T01:28:11.181Z,9.38
2023-01-19T01:30:40.897Z,8.30
2023-01-19T01:33:08.658Z,8.90
2023-01-19T01:35:36.354Z,8.27
2023-01-19T01:38:04.349Z,8.93
2023-01-19T01:40:31.934Z,8.82
2023-01-19T01:43:02.636Z,8.57
2023-01-19T01:45:33.835Z,8.50
2023-01-19T01:48:09.486Z,8.88
2023-01-19T01:51:02.657Z,8.77
2023-01-19T01:53:31.688Z,8.85
2023-01-19T01:56:00.918Z,8.50
2023-01-19T01:58:29.846Z,8.88
2023-01-19T02:01:15.086Z,9.05
2023-01-19T02:03:42.729Z,9.23
2023-01-19T02:06:11.207Z,8.63
2023-01-19T02:09:02.465Z,8.88
2023-01-19T02:11:49.108Z,9.48
2023-01-19T02:14:18.898Z,8.68
2023-01-19T02:16:47.095Z,9.25
2023-01-19T02:19:19.200Z,9.13
2023-01-19T02:21:53.940Z,9.40
2023-01-19T02:24:23.513Z,8.85
2023-01-19T02:26:52.091Z,9.68
2023-01-19T02:29:21.834Z,8.93
2023-01-19T02:31:49.348Z,9.00
2023-01-19T02:34:19.766Z,8.05
2023-01-19T02:36:53.337Z,8.18
2023-01-19T02:39:29.002Z,7.45
2023-01-19T02:42:02.668Z,9.25
2023-01-19T02:44:31.518Z,8.00
2023-01-19T02:46:59.050Z,8.40
2023-01-19T02:49:29.624Z,7.32
2023-01-19T02:51:57.333Z,7.93
2023-01-19T02:54:48.454Z,8.18
2023-01-19T02:57:32.468Z,7.68
2023-01-19T03:00:13.475Z,7.45
2023-01-19T03:02:53.378Z,8.00
2023-01-19T03:05:34.024Z,8.38
2023-01-19T03:08:09.169Z,7.93
2023-01-19T03:10:47.049Z,7.57
2023-01-19T03:13:19.959Z,8.20
2023-01-19T03:15:51.038Z,7.65
2023-01-19T03:18:23.356Z,8.18
2023-01-19T03:20:54.122Z,8.00
2023-01-19T03:23:25.932Z,8.32
2023-01-19T03:25:57.810Z,7.82
2023-01-19T03:28:28.230Z,7.22
2023-01-19T03:30:59.905Z,8.20
2023-01-19T03:33:30.509Z,7.65
2023-01-19T03:36:03.489Z,6.88
2023-01-19T03:38:36.226Z,7.75
2023-01-19T03:41:10.638Z,8.00
2023-01-19T03:43:39.929Z,7.72
2023-01-19T03:46:09.128Z,7.97
2023-01-19T03:48:36.975Z,7.40
2023-01-19T03:51:05.658Z,7.93
2023-01-19T03:53:33.398Z,7.10
2023-01-19T03:56:00.936Z,6.63
2023-01-19T03:58:30.018Z,6.55
2023-01-19T04:00:57.984Z,7.95
2023-01-19T04:03:25.530Z,7.60
2023-01-19T04:05:53.088Z,7.00
2023-01-19T04:08:20.592Z,8.68
2023-01-19T04:10:48.082Z,7.50
2023-01-19T04:13:15.562Z,7.38
2023-01-19T04:15:44.420Z,7.45
2023-01-19T04:18:11.951Z,8.30
2023-01-19T04:20:39.459Z,7.57
2023-01-19T04:23:07.231Z,7.65
2023-01-19T04:25:34.720Z,7.57
2023-01-19T04:28:02.183Z,8.25
2023-01-19T04:30:29.656Z,7.63
2023-01-19T04:33:00.161Z,7.53
2023-01-19T04:35:28.542Z,8.25
2023-01-19T04:37:56.058Z,7.75
2023-01-19T04:40:23.725Z,7.20
2023-01-19T04:42:51.222Z,8.23
2023-01-19T04:45:18.937Z,7.60
2023-01-19T04:47:46.390Z,7.85
2023-01-19T04:50:15.187Z,7.18
2023-01-19T04:52:42.663Z,8.02
2023-01-19T04:55:11.210Z,8.27
2023-01-19T04:57:38.848Z,8.25
2023-01-19T05:00:07.659Z,7.97
2023-01-19T05:02:35.687Z,7.85
2023-01-19T05:05:03.723Z,8.93
2023-01-19T05:07:32.670Z,8.05
2023-01-19T05:10:00.131Z,7.88
2023-01-19T05:12:27.766Z,7.78
2023-01-19T05:14:55.234Z,7.10
2023-01-19T05:17:22.708Z,7.40
2023-01-19T05:19:50.417Z,7.00
2023-01-19T05:22:18.137Z,6.82
2023-01-19T05:24:46.961Z,6.93
2023-01-19T05:27:14.418Z,6.85
2023-01-19T05:29:42.033Z,6.57
2023-01-19T05:32:09.504Z,7.20
2023-01-19T05:34:37.105Z,6.75
2023-01-19T05:37:04.599Z,6.85
2023-01-19T05:39:32.138Z,6.78
2023-01-19T05:42:01.012Z,6.50
2023-01-19T05:44:28.485Z,6.57
2023-01-19T05:46:56.432Z,6.97
2023-01-19T05:49:23.943Z,6.82
2023-01-19T05:51:51.404Z,6.00
2023-01-19T05:54:18.902Z,6.25
2023-01-19T05:56:46.560Z,6.50
2023-01-19T05:59:17.384Z,6.50
2023-01-19T06:01:45.095Z,6.25
2023-01-19T06:04:12.600Z,6.30
2023-01-19T06:06:40.324Z,5.57
2023-01-19T06:09:08.243Z,5.95
2023-01-19T06:11:35.696Z,6.05
2023-01-19T06:14:03.352Z,5.38
2023-01-19T06:16:32.308Z,5.50
2023-01-19T06:19:00.243Z,5.55
2023-01-19T06:21:27.726Z,5.20
2023-01-19T06:23:55.209Z,4.80
2023-01-19T06:26:22.713Z,4.70
2023-01-19T06:28:53.287Z,4.95
2023-01-19T06:31:20.857Z,4.60
2023-01-19T06:33:50.216Z,4.25
2023-01-19T06:36:17.683Z,4.28
2023-01-19T06:38:45.183Z,4.63
2023-01-19T06:41:12.727Z,4.45
2023-01-19T06:43:40.193Z,4.43
2023-01-19T06:46:07.818Z,4.22
2023-01-19T06:48:35.295Z,3.80
2023-01-19T06:51:05.886Z,4.28
2023-01-19T06:53:33.946Z,4.07
2023-01-19T06:56:03.955Z,3.67
2023-01-19T06:58:34.663Z,4.20
2023-01-19T07:01:03.175Z,4.15
2023-01-19T07:03:31.328Z,4.10
2023-01-19T07:06:02.202Z,4.32
2023-01-19T07:08:31.197Z,4.30
2023-01-19T07:11:23.612Z,4.05
2023-01-19T07:13:51.444Z,4.10
2023-01-19T07:16:19.551Z,3.90
2023-01-19T07:18:49.800Z,4.20
2023-01-19T07:21:17.559Z,4.03
2023-01-19T07:23:49.172Z,3.92
2023-01-19T07:26:18.557Z,3.45
2023-01-19T07:28:47.407Z,3.30
2023-01-19T07:31:16.433Z,3.67
2023-01-19T07:33:44.065Z,3.85
2023-01-19T07:36:12.110Z,3.45
2023-01-19T07:38:39.636Z,3.60
2023-01-19T07:41:10.339Z,3.70
2023-01-19T07:43:37.884Z,3.67
2023-01-19T07:46:06.711Z,3.67
2023-01-19T07:48:34.578Z,4.28
2023-01-19T07:51:05.217Z,4.32
2023-01-19T07:53:32.870Z,5.32
2023-01-19T07:56:00.568Z,5.03
2023-01-19T07:58:30.397Z,5.07
2023-01-19T08:00:58.079Z,5.30
2023-01-19T08:03:25.696Z,5.28
2023-01-19T08:05:54.282Z,6.78
2023-01-19T08:08:21.962Z,5.88
2023-01-19T08:10:51.343Z,5.32
2023-01-19T08:13:18.999Z,5.55
2023-01-19T08:15:50.575Z,5.90
2023-01-19T08:18:18.469Z,6.00
2023-01-19T08:20:46.915Z,6.22
2023-01-19T08:23:14.394Z,6.65
2023-01-19T08:25:45.131Z,6.80
2023-01-19T08:28:14.590Z,7.30
2023-01-19T08:30:43.836Z,6.93
2023-01-19T08:33:12.900Z,6.47
2023-01-19T08:35:41.868Z,6.88
2023-01-19T08:38:10.835Z,6.75
2023-01-19T08:40:40.163Z,6.80
2023-01-19T08:43:09.546Z,6.40
2023-01-19T08:45:37.927Z,6.38
2023-01-19T08:48:06.243Z,6.78
2023-01-19T08:50:35.541Z,6.97
2023-01-19T08:53:06.535Z,8.15
2023-01-19T08:55:35.111Z,7.28
2023-01-19T08:58:04.121Z,7.28
2023-01-19T09:00:33.597Z,7.55
2023-01-19T09:03:03.947Z,8.13
2023-01-19T09:05:35.461Z,7.78
2023-01-19T09:08:05.119Z,7.80
2023-01-19T09:10:35.837Z,8.20
2023-01-19T09:13:04.196Z,9.32
2023-01-19T09:15:33.811Z,9.57
2023-01-19T09:18:02.281Z,9.10
2023-01-19T09:20:30.976Z,9.13
2023-01-19T09:22:59.305Z,9.38
2023-01-19T09:25:28.605Z,10.00
2023-01-19T09:27:56.141Z,9.20
2023-01-19T09:30:23.674Z,10.35
2023-01-19T09:32:51.150Z,9.63
2023-01-19T09:35:18.650Z,10.18
2023-01-19T09:37:47.235Z,10.02
2023-01-19T09:40:17.214Z,10.57
2023-01-19T09:42:51.576Z,10.73
2023-01-19T09:45:23.868Z,10.50
2023-01-19T09:47:53.130Z,10.68
2023-01-19T09:50:28.364Z,10.25
2023-01-19T09:53:01.305Z,10.43
2023-01-19T09:55:29.405Z,11.63
2023-01-19T09:57:58.735Z,10.38
2023-01-19T10:00:29.656Z,11.80
2023-01-19T10:03:04.019Z,11.80
2023-01-19T10:05:38.202Z,10.90
2023-01-19T10:08:22.866Z,11.93
2023-01-19T10:10:54.938Z,10.55
2023-01-19T10:13:38.909Z,10.10
2023-01-19T10:16:20.090Z,10.25
2023-01-19T10:18:51.485Z,10.90
2023-01-19T10:21:21.975Z,11.13
2023-01-19T10:23:54.549Z,10.00
2023-01-19T10:26:26.327Z,9.75
2023-01-19T10:29:02.867Z,10.63
2023-01-19T10:31:30.570Z,11.32
2023-01-19T10:33:58.895Z,11.32
2023-01-19T10:36:30.383Z,12.30
2023-01-19T10:38:59.049Z,12.05
2023-01-19T10:41:32.541Z,12.10
2023-01-19T10:44:02.880Z,12.63
2023-01-19T10:46:38.269Z,13.48
2023-01-19T10:49:07.759Z,13.30
2023-01-19T10:51:45.318Z,14.07
2023-01-19T10:54:14.246Z,14.00
2023-01-19T10:56:42.107Z,13.80
2023-01-19T10:59:33.873Z,14.43
2023-01-19T11:02:17.440Z,14.10
2023-01-19T11:04:48.997Z,13.45
2023-01-19T11:07:21.415Z,15.43
2023-01-19T11:09:49.849Z,14.35
2023-01-19T11:12:21.922Z,15.18
2023-01-19T11:14:54.117Z,16.33
2023-01-19T11:17:25.043Z,16.63
2023-01-19T11:20:01.112Z,15.50
2023-01-19T11:22:31.319Z,16.60
2023-01-19T11:25:01.461Z,16.45
2023-01-19T11:27:30.953Z,17.17
2023-01-19T11:30:09.662Z,17.23
2023-01-19T11:32:37.869Z,16.92
2023-01-19T11:35:33.005Z,18.77
2023-01-19T11:38:08.362Z,16.23
2023-01-19T11:40:36.608Z,18.33
2023-01-19T11:43:04.234Z,16.67
2023-01-19T11:45:34.983Z,16.40
2023-01-19T11:48:05.894Z,17.67
2023-01-19T11:50:39.834Z,18.58
2023-01-19T11:53:14.240Z,17.77
2023-01-19T11:55:50.013Z,17.42
2023-01-19T11:58:19.168Z,17.88
2023-01-19T12:00:52.434Z,17.23
2023-01-19T12:03:24.800Z,16.92
2023-01-19T12:05:56.325Z,17.83
2023-01-19T12:08:26.873Z,16.77
2023-01-19T12:10:57.843Z,16.40
2023-01-19T12:13:27.616Z,17.10
2023-01-19T12:16:01.921Z,17.48
2023-01-19T12:18:33.488Z,15.80
2023-01-19T12:21:03.921Z,16.95
2023-01-19T12:23:44.851Z,15.73
2023-01-19T12:26:28.220Z,15.27
2023-01-19T12:29:00.963Z,15.60
2023-01-19T12:31:30.012Z,16.98
2023-01-19T12:34:32.057Z,15.68
2023-01-19T12:37:04.598Z,17.30
2023-01-19T12:39:33.178Z,16.17
2023-01-19T12:42:13.543Z,17.63
2023-01-19T12:44:42.580Z,16.67
2023-01-19T12:47:24.127Z,16.77
2023-01-19T12:49:54.942Z,17.25
2023-01-19T12:52:30.691Z,17.27
2023-01-19T12:55:15.235Z,16.95
2023-01-19T12:57:50.138Z,17.60
2023-01-19T13:00:39.515Z,16.38
2023-01-19T13:03:40.480Z,17.35
2023-01-19T13:06:09.328Z,15.85
2023-01-19T13:08:58.638Z,17.83
2023-01-19T13:11:29.357Z,16.90
2023-01-19T13:14:34.769Z,16.40
2023-01-19T13:17:27.873Z,17.30
2023-01-19T13:20:24.029Z,18.58
2023-01-19T13:23:21.315Z,16.75
2023-01-19T13:25:54.413Z,16.42
2023-01-19T13:28:31.279Z,16.77
2023-01-19T13:31:02.503Z,16.58
2023-01-19T13:33:40.653Z,14.98
2023-01-19T13:36:19.596Z,15.85
2023-01-19T13:38:48.478Z,15.80
2023-01-19T13:41:19.869Z,16.23
2023-01-19T13:43:49.320Z,15.52
2023-01-19T13:46:18.961Z,17.52
2023-01-19T13:48:56.169Z,16.40
2023-01-19T13:51:24.011Z,16.30
2023-01-19T13:53:55.502Z,16.73
2023-01-19T13:56:27.691Z,14.98
2023-01-19T13:59:06.900Z,16.27
2023-01-19T14:01:34.611Z,16.08
2023-01-19T14:04:02.264Z,15.10
2023-01-19T14:06:36.108Z,16.02
2023-01-19T14:09:08.172Z,15.00
2023-01-19T14:11:37.150Z,13.57
2023-01-19T14:14:04.737Z,13.88
2023-01-19T14:16:32.265Z,12.82
2023-01-19T14:19:01.151Z,12.77
2023-01-19T14:21:39.163Z,13.02
2023-01-19T14:24:08.824Z,11.90
2023-01-19T14:26:48.721Z,11.55
2023-01-19T14:29:19.549Z,11.85
2023-01-19T14:31:49.009Z,12.38
2023-01-19T14:34:38.618Z,12.57
2023-01-19T14:37:14.148Z,12.35
2023-01-19T14:39:47.032Z,12.10
2023-01-19T14:42:21.589Z,12.15
2023-01-19T14:44:52.175Z,11.17
2023-01-19T14:47:34.029Z,11.30
2023-01-19T14:50:07.421Z,12.27
2023-01-19T14:52:39.293Z,10.38
2023-01-19T14:55:09.965Z,11.55
2023-01-19T14:57:39.049Z,11.88
2023-01-19T15:00:17.362Z,11.13
2023-01-19T15:02:45.424Z,11.02
2023-01-19T15:05:13.330Z,11.80
2023-01-19T15:07:44.148Z,11.98
2023-01-19T15:10:18.119Z,9.68
2023-01-19T15:12:47.418Z,10.60
2023-01-19T15:15:22.547Z,10.88
2023-01-19T15:17:50.792Z,10.95
2023-01-19T15:20:19.625Z,9.43
2023-01-19T15:22:47.795Z,10.52
2023-01-19T15:25:16.666Z,11.02
2023-01-19T15:27:45.269Z,12.15
2023-01-19T15:30:20.505Z,11.35
2023-01-19T15:32:48.973Z,11.63
2023-01-19T15:35:18.012Z,10.90
2023-01-19T15:37:45.875Z,11.65
2023-01-19T15:40:14.508Z,11.25
2023-01-19T15:42:42.472Z,11.50
2023-01-19T15:45:32.160Z,12.15
2023-01-19T15:47:59.875Z,14.88
2023-01-19T15:50:27.808Z,12.18
2023-01-19T15:52:55.295Z,12.75
2023-01-19T15:55:23.125Z,12.27
2023-01-19T15:57:50.669Z,12.50
2023-01-19T16:00:20.216Z,11.88
2023-01-19T16:02:50.070Z,13.20
2023-01-19T16:05:17.672Z,13.00
2023-01-19T16:07:45.409Z,11.82
2023-01-19T16:10:13.453Z,11.30
2023-01-19T16:12:40.995Z,11.88
2023-01-19T16:15:09.586Z,13.15
2023-01-19T16:17:38.625Z,12.23
2023-01-19T16:20:07.313Z,12.85
2023-01-19T16:22:35.054Z,13.13
2023-01-19T16:25:02.568Z,12.90
2023-01-19T16:27:30.521Z,12.52
2023-01-19T16:29:59.795Z,12.50
2023-01-19T16:32:27.305Z,12.93
2023-01-19T16:34:56.231Z,12.70
2023-01-19T16:37:23.725Z,13.05
2023-01-19T16:39:51.528Z,13.50
2023-01-19T16:42:19.312Z,14.07
2023-01-19T16:44:46.839Z,12.80
2023-01-19T16:47:14.335Z,13.20
2023-01-19T16:49:41.806Z,13.57
2023-01-19T16:52:10.682Z,13.57
2023-01-19T16:54:39.467Z,14.13
2023-01-19T16:57:06.997Z,13.93
2023-01-19T16:59:35.106Z,13.85
2023-01-19T17:02:03.125Z,13.38
2023-01-19T17:04:30.688Z,14.35
2023-01-19T17:06:58.553Z,12.98
2023-01-19T17:09:27.380Z,12.18
2023-01-19T17:11:54.897Z,13.13
2023-01-19T17:14:22.529Z,12.52
2023-01-19T17:16:50.778Z,13.52
2023-01-19T17:19:20.440Z,14.20
2023-01-19T17:21:49.544Z,11.48
2023-01-19T17:24:17.902Z,13.02
2023-01-19T17:26:48.575Z,12.43
2023-01-19T17:29:16.750Z,13.25
2023-01-19T17:31:45.818Z,11.95
2023-01-19T17:34:13.450Z,12.23
2023-01-19T17:36:40.971Z,12.00
2023-01-19T17:39:14.439Z,13.38
2023-01-19T17:41:42.018Z,12.88
2023-01-19T17:44:11.514Z,12.70
2023-01-19T17:46:39.743Z,11.88
2023-01-19T17:49:08.659Z,11.88
2023-01-19T17:51:36.409Z,13.07
2023-01-19T17:54:04.752Z,13.25
2023-01-19T17:56:36.740Z,12.90
2023-01-19T17:59:07.814Z,12.43
2023-01-19T18:01:39.746Z,13.32
2023-01-19T18:04:08.375Z,12.70
2023-01-19T18:06:35.921Z,13.38
2023-01-19T18:09:04.835Z,13.07
2023-01-19T18:11:32.334Z,17.55
2023-01-19T18:14:00.669Z,14.05
2023-01-19T18:16:29.958Z,13.25
2023-01-19T18:18:59.202Z,13.50
2023-01-19T18:21:28.706Z,12.60
2023-01-19T18:24:01.426Z,12.32
2023-01-19T18:26:29.654Z,13.07
2023-01-19T18:28:57.963Z,12.65
2023-01-19T18:31:26.868Z,12.93
2023-01-19T18:33:54.821Z,12.88
2023-01-19T18:36:23.854Z,14.02
2023-01-19T18:38:51.595Z,17.00
2023-01-19T18:41:20.853Z,16.80
2023-01-19T18:43:49.069Z,14.63
2023-01-19T18:46:17.338Z,15.13
2023-01-19T18:48:44.934Z,14.55
2023-01-19T18:51:14.856Z,13.88
2023-01-19T18:53:43.966Z,14.23
2023-01-19T18:56:13.490Z,13.68
2023-01-19T18:58:41.275Z,12.32
2023-01-19T19:01:20.093Z,13.25
2023-01-19T19:03:47.680Z,11.55
2023-01-19T19:06:16.685Z,11.50
2023-01-19T19:08:45.507Z,11.65
2023-01-19T19:11:14.223Z,12.57
2023-01-19T19:13:41.987Z,11.77
2023-01-19T19:16:11.535Z,11.20
2023-01-19T19:18:39.917Z,11.18
2023-01-19T19:21:08.474Z,12.18
2023-01-19T19:23:36.619Z,11.93
2023-01-19T19:26:07.290Z,11.30
2023-01-19T19:28:36.471Z,11.77
2023-01-19T19:31:08.333Z,11.85
2023-01-19T19:33:36.390Z,13.27
2023-01-19T19:36:04.578Z,13.30
2023-01-19T19:38:32.487Z,14.00
2023-01-19T19:41:05.295Z,12.70
2023-01-19T19:43:34.236Z,12.27
2023-01-19T19:46:03.233Z,13.98
2023-01-19T19:48:31.039Z,12.57
2023-01-19T19:51:17.087Z,11.95
2023-01-19T19:53:45.496Z,12.82
2023-01-19T19:56:14.228Z,12.32
2023-01-19T19:58:43.799Z,13.55
2023-01-19T20:01:12.374Z,12.43
2023-01-19T20:03:40.408Z,11.43
2023-01-19T20:06:09.891Z,13.20
2023-01-19T20:08:37.686Z,11.77
2023-01-19T20:11:07.377Z,12.38
2023-01-19T20:13:35.548Z,13.95
2023-01-19T20:16:05.985Z,13.35
2023-01-19T20:18:34.170Z,14.48
2023-01-19T20:21:01.739Z,12.27
2023-01-19T20:23:29.274Z,12.23
2023-01-19T20:25:56.755Z,13.07
2023-01-19T20:28:24.250Z,12.55
2023-01-19T20:30:51.925Z,12.82
2023-01-19T20:33:20.965Z,11.52
2023-01-19T20:35:48.444Z,15.00
2023-01-19T20:38:15.950Z,12.65
2023-01-19T20:40:43.389Z,12.32
2023-01-19T20:43:10.867Z,12.13
2023-01-19T20:45:38.353Z,11.57
2023-01-19T20:48:06.210Z,11.77
2023-01-19T20:50:35.237Z,11.88
2023-01-19T20:53:02.734Z,12.50
2023-01-19T20:55:33.350Z,13.38
2023-01-19T20:58:01.362Z,12.60
2023-01-19T21:00:29.125Z,10.77
2023-01-19T21:02:56.978Z,12.35
2023-01-19T21:05:25.226Z,11.75
2023-01-19T21:07:54.270Z,12.10
2023-01-19T21:10:22.880Z,10.85
2023-01-19T21:12:50.380Z,10.52
2023-01-19T21:15:18.581Z,10.13
2023-01-19T21:17:46.139Z,11.05
2023-01-19T21:20:14.198Z,10.88
2023-01-19T21:22:41.663Z,10.63
2023-01-19T21:25:11.473Z,11.20
2023-01-19T21:27:39.141Z,11.32
2023-01-19T21:30:07.702Z,11.05
2023-01-19T21:32:36.341Z,11.35
2023-01-19T21:35:03.999Z,10.80
2023-01-19T21:37:31.670Z,10.65
2023-01-19T21:39:59.148Z,10.90
2023-01-19T21:42:28.003Z,10.02
2023-01-19T21:44:55.493Z,10.43
2023-01-19T21:47:22.980Z,10.65
2023-01-19T21:49:50.460Z,10.45
2023-01-19T21:52:17.941Z,11.02
2023-01-19T21:54:45.391Z,12.57
2023-01-19T21:57:15.042Z,10.43
2023-01-19T21:59:43.880Z,11.70
2023-01-19T22:02:12.510Z,10.73
2023-01-19T22:04:40.551Z,11.32
2023-01-19T22:07:08.159Z,10.20
2023-01-19T22:09:35.863Z,11.15
2023-01-19T22:12:03.614Z,11.65
2023-01-19T22:14:31.090Z,11.18
2023-01-19T22:16:59.945Z,11.05
2023-01-19T22:19:27.743Z,11.90
2023-01-19T22:21:55.288Z,11.68
2023-01-19T22:24:22.755Z,11.15
2023-01-19T22:26:50.287Z,11.27
2023-01-19T22:29:17.783Z,11.38
2023-01-19T22:31:45.741Z,11.50
2023-01-19T22:34:17.132Z,10.57
2023-01-19T22:36:44.637Z,11.02
2023-01-19T22:39:13.465Z,11.43
2023-01-19T22:41:42.317Z,11.85
2023-01-19T22:44:12.273Z,11.55
2023-01-19T22:46:40.076Z,12.48
2023-01-19T22:49:09.001Z,12.20
2023-01-19T22:51:37.841Z,12.13
2023-01-19T22:54:05.720Z,11.75
2023-01-19T22:56:34.768Z,12.35
2023-01-19T22:59:03.058Z,12.82
2023-01-19T23:01:33.301Z,12.65
2023-01-19T23:04:02.057Z,12.40
2023-01-19T23:06:31.051Z,14.52
2023-01-19T23:09:01.273Z,14.40
2023-01-19T23:11:31.066Z,12.60
2023-01-19T23:13:58.917Z,13.18
2023-01-19T23:16:27.007Z,12.05
2023-01-19T23:18:55.688Z,13.32
2023-01-19T23:21:25.177Z,14.55
2023-01-19T23:23:54.567Z,14.00
2023-01-19T23:26:24.520Z,15.15
2023-01-19T23:28:55.792Z,15.30
2023-01-19T23:31:26.133Z,14.77
2023-01-19T23:33:55.238Z,14.50
2023-01-19T23:36:24.739Z,15.02
2023-01-19T23:38:54.259Z,14.18
2023-01-19T23:41:24.234Z,14.52
2023-01-19T23:43:51.807Z,13.82
2023-01-19T23:46:20.499Z,13.57
2023-01-19T23:48:48.551Z,14.65
2023-01-19T23:51:18.259Z,14.18
2023-01-19T23:53:46.369Z,14.82
2023-01-19T23:56:17.360Z,13.15
2023-01-19T23:58:47.531Z,14.30
